createdAt,value
2023-05-11T00:00:46.155Z,3.70
2023-05-11T00:03:12.816Z,3.53
2023-05-11T00:05:39.594Z,3.30
2023-05-11T00:08:07.111Z,7.57
2023-05-11T00:10:34.523Z,4.53
2023-05-11T00:13:01.104Z,3.70
2023-05-11T00:15:28.604Z,3.50
2023-05-11T00:17:55.264Z,3.43
2023-05-11T00:20:23.448Z,4.07
2023-05-11T00:22:50.005Z,3.30
2023-05-11T00:25:16.860Z,3.40
2023-05-11T00:27:46.119Z,3.80
2023-05-11T00:30:15.956Z,3.80
2023-05-11T00:32:43.153Z,3.43
2023-05-11T00:35:11.167Z,4.10
2023-05-11T00:37:38.365Z,4.57
2023-05-11T00:40:05.252Z,4.10
2023-05-11T00:42:31.827Z,4.70
2023-05-11T00:45:02.589Z,4.70
2023-05-11T00:47:29.170Z,4.30
2023-05-11T00:49:55.826Z,4.60
2023-05-11T00:52:22.502Z,4.73
2023-05-11T00:54:49.309Z,4.53
2023-05-11T00:57:16.810Z,4.77
2023-05-11T00:59:43.428Z,4.40
2023-05-11T01:02:11.121Z,4.40
2023-05-11T01:04:37.740Z,4.30
2023-05-11T01:07:08.339Z,4.17
2023-05-11T01:09:38.470Z,4.07
2023-05-11T01:12:28.388Z,3.90
2023-05-11T01:14:58.697Z,4.17
2023-05-11T01:17:34.663Z,4.37
2023-05-11T01:20:07.558Z,4.20
2023-05-11T01:22:39.247Z,3.83
2023-05-11T01:25:19.220Z,3.40
2023-05-11T01:27:47.547Z,3.77
2023-05-11T01:30:26.615Z,3.60
2023-05-11T01:32:55.340Z,3.83
2023-05-11T01:35:22.418Z,3.30
2023-05-11T01:37:54.203Z,3.63
2023-05-11T01:40:25.951Z,3.23
2023-05-11T01:42:59.666Z,3.57
2023-05-11T02:17:23.025Z,3.20
2023-05-11T02:19:50.543Z,3.80
2023-05-11T02:22:17.860Z,3.27
2023-05-11T02:24:45.376Z,3.07
2023-05-11T02:27:13.034Z,2.97
2023-05-11T02:29:40.557Z,3.10
2023-05-11T02:32:08.110Z,3.00
2023-05-11T02:34:42.056Z,3.70
2023-05-11T02:37:16.358Z,3.90
2023-05-11T02:39:44.372Z,3.37
2023-05-11T02:42:14.414Z,3.30
2023-05-11T02:44:44.628Z,3.50
2023-05-11T02:47:12.146Z,3.23
2023-05-11T02:49:39.040Z,3.30
2023-05-11T02:52:09.163Z,3.03
2023-05-11T02:54:42.166Z,3.20
2023-05-11T02:57:08.829Z,3.23
2023-05-11T02:59:36.239Z,3.20
2023-05-11T03:02:03.025Z,3.03
2023-05-11T03:04:29.736Z,3.40
2023-05-11T03:06:56.613Z,3.43
2023-05-11T03:09:23.197Z,2.83
2023-05-11T03:11:52.432Z,3.30
2023-05-11T03:14:19.135Z,3.20
2023-05-11T03:16:46.150Z,3.13
2023-05-11T03:19:14.864Z,3.30
2023-05-11T03:21:43.218Z,3.10
2023-05-11T03:24:09.823Z,3.20
2023-05-11T03:26:36.630Z,3.43
2023-05-11T03:29:03.639Z,2.73
2023-05-11T03:31:30.403Z,3.30
2023-05-11T03:33:58.909Z,3.00
2023-05-11T03:36:26.111Z,3.23
2023-05-11T03:38:53.708Z,3.63
2023-05-11T03:41:22.549Z,3.17
2023-05-11T03:43:53.730Z,3.33
2023-05-11T03:46:21.892Z,2.80
2023-05-11T03:48:48.511Z,3.40
2023-05-11T03:51:19.581Z,3.37
2023-05-11T03:53:46.390Z,3.20
2023-05-11T03:56:14.488Z,3.00
2023-05-11T03:58:42.033Z,3.23
2023-05-11T04:01:09.685Z,3.50
2023-05-11T04:03:36.865Z,3.50
2023-05-11T04:06:03.719Z,3.47
2023-05-11T04:08:30.472Z,3.40
2023-05-11T04:10:57.257Z,3.33
2023-05-11T04:13:24.025Z,3.13
2023-05-11T04:15:52.962Z,3.33
2023-05-11T04:18:23.933Z,3.20
2023-05-11T04:20:50.795Z,3.50
2023-05-11T04:23:17.519Z,3.47
2023-05-11T04:25:44.210Z,3.80
2023-05-11T04:28:11.726Z,3.77
2023-05-11T04:30:38.397Z,3.13
2023-05-11T04:33:05.502Z,3.40
2023-05-11T04:35:32.285Z,3.40
2023-05-11T04:37:58.951Z,3.27
2023-05-11T04:40:26.813Z,3.17
2023-05-11T04:42:54.186Z,3.60
2023-05-11T04:45:21.388Z,3.40
2023-05-11T04:47:49.365Z,2.90
2023-05-11T04:50:16.406Z,3.10
2023-05-11T04:52:43.155Z,2.90
2023-05-11T04:55:09.903Z,2.80
2023-05-11T04:57:38.858Z,2.80
2023-05-11T05:00:07.225Z,3.53
2023-05-11T05:02:34.269Z,2.70
2023-05-11T05:05:01.097Z,3.53
2023-05-11T05:07:27.822Z,3.03
2023-05-11T05:09:54.609Z,2.70
2023-05-11T05:12:23.507Z,2.90
2023-05-11T05:14:50.236Z,2.63
2023-05-11T05:17:17.801Z,2.90
2023-05-11T05:19:45.233Z,3.00
2023-05-11T05:22:11.913Z,2.73
2023-05-11T05:24:38.711Z,2.50
2023-05-11T05:27:05.951Z,2.57
2023-05-11T05:29:33.127Z,2.77
2023-05-11T05:32:00.010Z,2.97
2023-05-11T05:34:27.322Z,2.53
2023-05-11T05:36:53.957Z,2.50
2023-05-11T05:39:20.595Z,2.53
2023-05-11T05:41:47.318Z,2.53
2023-05-11T05:44:14.029Z,2.60
2023-05-11T05:46:40.910Z,2.80
2023-05-11T05:49:07.687Z,2.30
2023-05-11T05:51:36.591Z,2.50
2023-05-11T05:54:04.305Z,2.37
2023-05-11T05:56:32.385Z,2.90
2023-05-11T05:58:59.585Z,2.70
2023-05-11T06:01:27.438Z,2.50
2023-05-11T06:03:54.766Z,2.50
2023-05-11T06:06:21.715Z,2.80
2023-05-11T06:08:48.661Z,2.47
2023-05-11T06:11:16.496Z,2.80
2023-05-11T06:13:43.164Z,2.60
2023-05-11T06:16:09.847Z,2.93
2023-05-11T06:18:37.434Z,2.30
2023-05-11T06:21:07.369Z,2.80
2023-05-11T06:23:34.251Z,3.13
2023-05-11T06:26:02.087Z,3.03
2023-05-11T06:28:31.208Z,2.93
2023-05-11T06:31:01.253Z,2.60
2023-05-11T06:33:31.273Z,2.80
2023-05-11T06:35:58.636Z,2.87
2023-05-11T06:38:28.693Z,2.57
2023-05-11T06:40:56.450Z,3.00
2023-05-11T06:43:23.383Z,3.07
2023-05-11T06:45:52.419Z,2.77
2023-05-11T06:48:20.170Z,3.07
2023-05-11T06:50:47.139Z,2.97
2023-05-11T06:53:13.902Z,3.03
2023-05-11T06:55:41.721Z,3.03
2023-05-11T06:58:08.290Z,2.60
2023-05-11T07:00:35.701Z,2.77
2023-05-11T07:03:02.263Z,3.10
2023-05-11T07:05:29.208Z,3.20
2023-05-11T07:07:55.870Z,3.07
2023-05-11T07:10:22.720Z,3.00
2023-05-11T07:12:49.441Z,2.70
2023-05-11T07:15:16.080Z,2.90
2023-05-11T07:17:42.689Z,2.87
2023-05-11T07:20:09.486Z,2.77
2023-05-11T07:22:36.236Z,2.77
2023-05-11T07:25:02.768Z,2.70
2023-05-11T07:27:29.557Z,2.80
2023-05-11T07:29:56.597Z,2.60
2023-05-11T07:32:23.355Z,2.43
2023-05-11T07:34:50.039Z,2.63
2023-05-11T07:37:16.588Z,2.30
2023-05-11T07:39:43.178Z,2.73
2023-05-11T07:42:09.849Z,2.53
2023-05-11T07:44:37.373Z,2.90
2023-05-11T07:47:04.074Z,2.90
2023-05-11T07:49:39.963Z,2.80
2023-05-11T07:52:10.543Z,2.53
2023-05-11T07:54:37.334Z,2.60
2023-05-11T07:57:04.250Z,2.50
2023-05-11T07:59:31.266Z,2.50
2023-05-11T08:01:58.115Z,2.83
2023-05-11T08:04:26.787Z,2.63
2023-05-11T08:06:53.473Z,2.73
2023-05-11T08:09:20.070Z,2.63
2023-05-11T08:11:46.942Z,2.60
2023-05-11T08:14:14.033Z,2.57
2023-05-11T08:16:40.811Z,2.53
2023-05-11T08:19:07.888Z,2.60
2023-05-11T08:21:37.190Z,2.23
2023-05-11T08:24:03.982Z,2.30
2023-05-11T08:26:30.713Z,2.20
2023-05-11T08:28:57.473Z,2.33
2023-05-11T08:31:24.976Z,2.10
2023-05-11T08:33:51.884Z,2.17
2023-05-11T08:36:18.806Z,1.90
2023-05-11T08:38:45.603Z,2.10
2023-05-11T08:41:12.690Z,1.97
2023-05-11T08:43:40.683Z,1.83
2023-05-11T08:46:08.342Z,2.03
2023-05-11T08:48:35.162Z,2.00
2023-05-11T08:51:03.618Z,2.07
2023-05-11T08:53:30.349Z,1.93
2023-05-11T08:56:01.353Z,1.73
2023-05-11T08:58:29.182Z,2.10
2023-05-11T09:00:55.910Z,2.10
2023-05-11T09:03:22.712Z,2.23
2023-05-11T09:05:49.522Z,1.90
2023-05-11T09:08:17.797Z,1.67
2023-05-11T09:10:44.447Z,2.03
2023-05-11T09:13:11.350Z,2.00
2023-05-11T09:15:38.456Z,1.90
2023-05-11T09:18:05.657Z,2.10
2023-05-11T09:20:32.965Z,1.83
2023-05-11T09:22:59.758Z,2.10
2023-05-11T09:25:26.682Z,1.63
2023-05-11T09:27:53.357Z,1.70
2023-05-11T09:30:23.144Z,1.50
2023-05-11T09:32:50.313Z,1.83
2023-05-11T09:35:21.684Z,1.80
2023-05-11T09:37:59.127Z,1.57
2023-05-11T09:43:00.130Z,1.83
2023-05-11T09:45:43.662Z,1.77
2023-05-11T09:48:29.305Z,1.77
2023-05-11T09:51:00.131Z,2.17
2023-05-11T09:53:35.224Z,1.80
2023-05-11T09:56:01.842Z,1.30
2023-05-11T09:58:35.992Z,2.03
2023-05-11T10:01:02.584Z,1.90
2023-05-11T10:03:29.596Z,1.60
2023-05-11T10:05:57.873Z,1.40
2023-05-11T10:08:28.014Z,1.60
2023-05-11T10:10:54.569Z,1.53
2023-05-11T10:13:21.180Z,1.50
2023-05-11T10:15:49.866Z,1.60
2023-05-11T10:18:18.800Z,1.70
2023-05-11T10:20:46.778Z,1.80
2023-05-11T10:23:15.156Z,1.80
2023-05-11T10:25:41.705Z,1.80
2023-05-11T10:28:08.771Z,1.90
2023-05-11T10:30:35.491Z,1.87
2023-05-11T10:33:02.171Z,1.83
2023-05-11T10:35:28.763Z,1.70
2023-05-11T10:37:55.300Z,1.70
2023-05-11T10:40:22.019Z,1.70
2023-05-11T10:43:07.404Z,1.70
2023-05-11T10:45:37.079Z,1.60
2023-05-11T10:48:19.867Z,1.70
2023-05-11T10:51:05.617Z,1.87
2023-05-11T10:53:38.071Z,1.77
2023-05-11T10:56:17.968Z,1.80
2023-05-11T10:58:59.921Z,1.70
2023-05-11T11:01:42.878Z,2.00
2023-05-11T11:04:10.203Z,1.80
2023-05-11T11:06:38.029Z,1.80
2023-05-11T11:09:05.618Z,1.80
2023-05-11T11:11:33.300Z,1.70
2023-05-11T11:14:02.747Z,1.60
2023-05-11T11:16:30.015Z,1.80
2023-05-11T11:19:16.209Z,1.67
2023-05-11T11:21:43.210Z,1.83
2023-05-11T11:24:09.843Z,1.90
2023-05-11T11:26:51.194Z,1.87
2023-05-11T11:29:18.080Z,1.90
2023-05-11T11:31:44.883Z,1.70
2023-05-11T11:34:30.959Z,2.10
2023-05-11T11:37:06.885Z,2.00
2023-05-11T11:39:43.038Z,2.00
2023-05-11T11:42:11.544Z,1.93
2023-05-11T11:44:38.411Z,1.70
2023-05-11T11:47:25.741Z,1.90
2023-05-11T11:50:01.719Z,2.37
2023-05-11T11:52:31.864Z,1.50
2023-05-11T11:55:00.161Z,1.60
2023-05-11T11:57:44.183Z,1.80
2023-05-11T12:00:13.171Z,1.60
2023-05-11T12:02:43.285Z,1.60
2023-05-11T12:05:15.077Z,1.80
2023-05-11T12:07:42.710Z,1.73
2023-05-11T12:10:12.210Z,1.70
2023-05-11T12:12:39.418Z,1.67
2023-05-11T12:15:07.021Z,1.77
2023-05-11T12:17:37.884Z,1.67
2023-05-11T12:20:17.074Z,1.70
2023-05-11T12:22:49.906Z,1.67
2023-05-11T12:25:18.372Z,1.97
2023-05-11T12:27:55.772Z,2.00
2023-05-11T12:30:30.680Z,1.90
2023-05-11T12:32:58.230Z,1.70
2023-05-11T12:35:33.748Z,1.60
2023-05-11T12:38:02.267Z,1.57
2023-05-11T12:40:29.104Z,1.90
2023-05-11T12:42:57.842Z,1.87
2023-05-11T12:45:25.780Z,1.80
2023-05-11T12:47:56.313Z,1.60
2023-05-11T12:50:23.909Z,1.87
2023-05-11T12:52:50.843Z,1.67
2023-05-11T12:55:29.992Z,1.60
2023-05-11T12:58:15.566Z,1.60
2023-05-11T13:01:01.723Z,1.80
2023-05-11T13:03:30.662Z,1.80
2023-05-11T13:06:13.502Z,1.50
2023-05-11T13:08:44.541Z,1.70
2023-05-11T13:11:17.548Z,1.90
2023-05-11T13:13:44.578Z,1.57
2023-05-11T13:16:11.522Z,1.50
2023-05-11T13:18:38.435Z,1.53
2023-05-11T13:21:05.996Z,1.57
2023-05-11T13:23:32.606Z,1.80
2023-05-11T13:25:59.220Z,1.67
2023-05-11T13:28:26.523Z,1.50
2023-05-11T13:31:03.155Z,1.53
2023-05-11T13:33:30.217Z,1.40
2023-05-11T13:35:56.876Z,1.60
2023-05-11T13:38:27.530Z,1.40
2023-05-11T13:40:54.954Z,1.80
2023-05-11T13:43:21.607Z,1.83
2023-05-11T13:45:48.485Z,1.30
2023-05-11T13:48:15.137Z,1.83
2023-05-11T13:50:43.351Z,1.80
2023-05-11T13:53:12.307Z,1.73
2023-05-11T13:55:40.958Z,1.80
2023-05-11T13:58:08.389Z,1.70
2023-05-11T14:00:37.013Z,1.57
2023-05-11T14:03:04.176Z,1.57
2023-05-11T14:05:31.450Z,1.60
2023-05-11T14:07:58.878Z,1.70
2023-05-11T14:10:25.597Z,1.50
2023-05-11T14:12:52.467Z,1.80
2023-05-11T14:15:19.703Z,1.60
2023-05-11T14:17:46.731Z,1.70
2023-05-11T14:20:13.521Z,1.57
2023-05-11T14:22:41.945Z,1.60
2023-05-11T14:25:08.894Z,1.50
2023-05-11T14:27:36.312Z,1.57
2023-05-11T14:30:03.120Z,1.80
2023-05-11T14:32:29.817Z,1.43
2023-05-11T14:34:56.679Z,1.43
2023-05-11T14:37:24.648Z,1.47
2023-05-11T14:39:52.572Z,1.70
2023-05-11T14:42:19.269Z,1.80
2023-05-11T14:44:46.835Z,1.70
2023-05-11T14:47:13.729Z,1.73
2023-05-11T14:49:40.554Z,1.87
2023-05-11T14:52:07.158Z,1.43
2023-05-11T14:54:34.883Z,1.30
2023-05-11T14:57:01.502Z,2.03
2023-05-11T14:59:28.262Z,1.70
2023-05-11T15:01:54.885Z,1.60
2023-05-11T15:04:22.409Z,1.60
2023-05-11T15:06:49.209Z,1.53
2023-05-11T15:09:16.209Z,1.80
2023-05-11T15:11:42.878Z,2.00
2023-05-11T15:14:10.029Z,1.60
2023-05-11T15:16:37.349Z,1.83
2023-05-11T15:19:05.255Z,1.60
2023-05-11T15:21:32.717Z,1.43
2023-05-11T15:23:59.423Z,1.60
2023-05-11T15:26:26.079Z,1.80
2023-05-11T15:28:54.186Z,1.43
2023-05-11T15:31:22.424Z,1.60
2023-05-11T15:33:49.979Z,1.60
2023-05-11T15:36:18.027Z,1.67
2023-05-11T15:38:45.369Z,1.70
2023-05-11T15:41:12.593Z,1.70
2023-05-11T15:43:39.333Z,1.67
2023-05-11T15:46:07.665Z,1.60
2023-05-11T15:48:34.589Z,1.60
2023-05-11T15:51:01.358Z,1.60
2023-05-11T15:53:28.152Z,1.60
2023-05-11T15:55:55.890Z,1.67
2023-05-11T15:58:24.937Z,1.80
2023-05-11T16:00:51.885Z,1.77
2023-05-11T16:03:23.063Z,1.70
2023-05-11T16:05:49.965Z,2.00
2023-05-11T16:08:18.154Z,1.77
2023-05-11T16:10:45.432Z,1.70
2023-05-11T16:13:12.188Z,1.80
2023-05-11T16:15:39.301Z,1.50
2023-05-11T16:18:06.022Z,1.60
2023-05-11T16:20:34.844Z,1.70
2023-05-11T16:23:01.429Z,2.10
2023-05-11T16:25:28.258Z,1.80
2023-05-11T16:27:56.065Z,1.70
2023-05-11T16:30:25.530Z,1.70
2023-05-11T16:32:52.825Z,1.90
2023-05-11T16:35:20.500Z,1.73
2023-05-11T16:37:48.084Z,1.70
2023-05-11T16:40:14.946Z,3.90
2023-05-11T16:42:42.491Z,3.43
2023-05-11T16:45:09.335Z,2.00
2023-05-11T16:47:35.927Z,3.50
2023-05-11T16:50:02.563Z,7.13
2023-05-11T16:52:29.183Z,4.23
2023-05-11T16:54:58.928Z,8.37
2023-05-11T16:57:26.116Z,3.03
2023-05-11T16:59:52.922Z,2.23
2023-05-11T17:02:20.019Z,2.30
2023-05-11T17:04:46.855Z,2.37
2023-05-11T17:07:14.954Z,2.80
2023-05-11T17:09:41.840Z,2.67
2023-05-11T17:12:11.493Z,3.33
2023-05-11T17:14:41.193Z,2.50
2023-05-11T17:17:11.942Z,2.10
2023-05-11T17:19:40.910Z,1.93
2023-05-11T17:22:07.689Z,1.90
2023-05-11T17:24:34.580Z,2.20
2023-05-11T17:27:02.921Z,2.07
2023-05-11T17:29:29.671Z,2.13
2023-05-11T17:31:57.885Z,3.00
2023-05-11T17:34:28.268Z,2.73
2023-05-11T17:37:05.101Z,2.00
2023-05-11T17:47:53.063Z,3.87
2023-05-11T17:50:58.782Z,2.87
2023-05-11T18:01:17.863Z,3.70
2023-05-11T18:11:55.506Z,2.83
2023-05-11T18:30:00.480Z,2.43
2023-05-11T18:33:37.272Z,2.50
2023-05-11T19:00:45.925Z,2.80
2023-05-11T19:03:17.606Z,3.43
2023-05-11T19:05:44.996Z,3.40
2023-05-11T19:08:14.345Z,4.37
2023-05-11T19:10:41.325Z,5.07
2023-05-11T19:13:09.685Z,5.13
2023-05-11T19:15:36.550Z,5.47
2023-05-11T19:18:03.213Z,6.63
2023-05-11T19:20:29.846Z,6.43
2023-05-11T19:22:57.427Z,7.17
2023-05-11T19:25:24.150Z,7.57
2023-05-11T19:27:52.189Z,7.03
2023-05-11T19:30:19.153Z,5.30
2023-05-11T19:32:50.544Z,6.07
2023-05-11T19:35:21.721Z,7.27
2023-05-11T19:37:48.505Z,5.77
2023-05-11T19:42:54.098Z,5.00
2023-05-11T19:45:20.852Z,5.63
2023-05-11T19:47:47.426Z,6.73
2023-05-11T19:50:15.063Z,7.90
2023-05-11T19:52:41.729Z,7.33
2023-05-11T19:55:08.739Z,7.37
2023-05-11T19:57:37.566Z,7.53
2023-05-11T20:00:05.732Z,11.33
2023-05-11T20:02:32.712Z,9.43
2023-05-11T20:05:01.019Z,9.20
2023-05-11T20:07:27.788Z,15.63
2023-05-11T20:09:55.005Z,10.07
2023-05-11T20:12:22.001Z,9.07
2023-05-11T20:14:48.870Z,7.93
2023-05-11T20:17:15.560Z,10.00
2023-05-11T20:19:45.490Z,9.97
2023-05-11T20:22:12.369Z,8.23
2023-05-11T20:24:43.661Z,10.97
2023-05-11T20:27:11.163Z,10.53
2023-05-11T20:29:40.353Z,6.10
2023-05-11T20:32:07.827Z,6.27
2023-05-11T20:34:35.662Z,7.17
2023-05-11T20:37:02.454Z,7.97
2023-05-11T20:39:29.134Z,7.40
2023-05-11T20:41:58.505Z,8.73
2023-05-11T20:44:25.902Z,9.53
2023-05-11T20:46:53.235Z,10.17
2023-05-11T20:49:34.620Z,10.67
2023-05-11T20:52:06.823Z,12.17
2023-05-11T20:54:35.021Z,11.17
2023-05-11T20:57:05.102Z,11.23
2023-05-11T21:02:01.938Z,11.17
2023-05-11T21:04:29.875Z,11.30
2023-05-11T21:06:56.477Z,12.13
2023-05-11T21:09:23.060Z,11.17
2023-05-11T21:11:49.977Z,10.93
2023-05-11T21:14:16.552Z,12.70
2023-05-11T21:16:44.122Z,12.03
2023-05-11T21:19:10.766Z,15.07
2023-05-11T21:21:37.795Z,12.17
2023-05-11T21:24:05.196Z,9.83
2023-05-11T21:26:32.314Z,16.10
2023-05-11T21:28:58.876Z,14.63
2023-05-11T21:31:25.665Z,12.77
2023-05-11T21:33:52.589Z,10.93
2023-05-11T21:36:19.655Z,8.60
2023-05-11T21:38:46.434Z,8.03
2023-05-11T21:41:13.602Z,7.53
2023-05-11T21:43:40.316Z,8.47
2023-05-11T21:46:07.060Z,8.63
2023-05-11T21:48:33.621Z,9.20
2023-05-11T21:51:00.499Z,10.30
2023-05-11T21:53:27.092Z,11.83
2023-05-11T21:55:55.110Z,10.53
2023-05-11T21:58:21.622Z,10.07
2023-05-11T22:00:48.261Z,8.80
2023-05-11T22:03:14.895Z,10.97
2023-05-11T22:05:41.667Z,9.90
2023-05-11T22:08:15.451Z,13.47
2023-05-11T22:10:43.437Z,10.67
2023-05-11T22:13:10.013Z,11.67
2023-05-11T22:15:36.654Z,12.57
2023-05-11T22:18:03.616Z,12.27
2023-05-11T22:20:31.829Z,11.37
2023-05-11T22:22:59.948Z,12.23
2023-05-11T22:25:26.685Z,12.63
2023-05-11T22:27:53.330Z,13.10
2023-05-11T22:30:21.392Z,13.27
2023-05-11T22:32:48.229Z,12.00
2023-05-11T22:35:14.879Z,11.40
2023-05-11T22:37:41.505Z,9.93
2023-05-11T22:40:08.846Z,10.00
2023-05-11T22:42:35.588Z,12.27
2023-05-11T22:45:02.317Z,10.30
2023-05-11T22:47:29.539Z,10.40
2023-05-11T22:49:56.231Z,9.77
2023-05-11T22:52:23.658Z,11.07
2023-05-11T22:54:54.703Z,9.37
2023-05-11T22:57:22.108Z,10.13
2023-05-11T22:59:48.723Z,9.13
2023-05-11T23:02:15.457Z,9.47
2023-05-11T23:04:42.185Z,9.30
2023-05-11T23:07:12.184Z,8.57
2023-05-11T23:09:40.415Z,8.70
2023-05-11T23:12:07.401Z,8.03
2023-05-11T23:14:34.014Z,7.27
2023-05-11T23:17:00.683Z,7.73
2023-05-11T23:19:27.343Z,8.90
2023-05-11T23:21:53.961Z,8.50
2023-05-11T23:24:20.621Z,17.60
2023-05-11T23:26:47.243Z,9.47
2023-05-11T23:29:14.690Z,12.40
2023-05-11T23:31:41.423Z,8.93
2023-05-11T23:34:08.652Z,9.30
2023-05-11T23:36:35.263Z,7.47
2023-05-11T23:39:01.884Z,7.40
2023-05-11T23:41:28.372Z,6.60
2023-05-11T23:43:54.962Z,6.60
2023-05-11T23:46:21.527Z,6.73
2023-05-11T23:48:48.442Z,6.77
2023-05-11T23:51:16.567Z,8.00
2023-05-11T23:53:43.102Z,6.83
2023-05-11T23:56:09.956Z,6.57
2023-05-11T23:58:37.378Z,7.00
